Decatur, Texas
Current Conditions -  °F | °C
As of 1:35 PM on Wednesday 17 Dec 2014 (Local Time) from KLUD Reporting Station
Overcast Overcast  
Wind Chill:   Ceiling: 3300
Heat Index:   Visibility: 10mi
Dew Point:   Wind: 13mph
Humidity: 89%   Direction: 110°ESE
Pressure: 30.09"   Gusts: 17mph
Location:  33.23°N, 97.59°W
Report Text: KLUD 171935Z AUTO 11011G15KT 10SM SCT012 OVC033 05/03 A3009 RMK AO2 T00500033
Loading
Personal Weather Stations






























Interactive Weather Map New forecast layout! Learn more

10-Day Weather Forecast

Advertisements
Track Severe Weather on mobile